createdAt,value
2023-01-31T00:00:00.636Z,4.20
2023-01-31T00:01:00.618Z,3.20
2023-01-31T00:02:00.664Z,3.60
2023-01-31T00:03:00.621Z,3.80
2023-01-31T00:04:00.628Z,3.30
2023-01-31T00:05:00.583Z,3.70
2023-01-31T00:06:00.558Z,3.50
2023-01-31T00:07:00.585Z,3.50
2023-01-31T00:08:00.560Z,3.30
2023-01-31T00:09:00.538Z,3.30
2023-01-31T00:10:00.537Z,3.10
2023-01-31T00:11:00.517Z,4.00
2023-01-31T00:12:00.509Z,4.20
2023-01-31T00:13:00.519Z,3.30
2023-01-31T00:14:00.520Z,3.20
2023-01-31T00:15:00.456Z,3.00
2023-01-31T00:16:00.500Z,3.10
2023-01-31T00:17:00.455Z,3.00
2023-01-31T00:18:00.429Z,3.70
2023-01-31T00:19:00.428Z,4.20
2023-01-31T00:20:00.479Z,3.60
2023-01-31T00:21:00.416Z,3.70
2023-01-31T00:22:00.405Z,3.20
2023-01-31T00:23:00.381Z,4.00
2023-01-31T00:24:00.413Z,3.90
2023-01-31T00:25:00.369Z,3.80
2023-01-31T00:26:00.342Z,3.00
2023-01-31T00:27:00.344Z,3.20
2023-01-31T00:28:00.374Z,3.30
2023-01-31T00:29:00.339Z,3.40
2023-01-31T00:30:00.324Z,3.40
2023-01-31T00:31:00.362Z,3.90
2023-01-31T00:32:00.556Z,3.10
2023-01-31T00:33:00.325Z,3.70
2023-01-31T00:34:00.292Z,3.60
2023-01-31T00:35:00.241Z,3.50
2023-01-31T00:36:00.263Z,3.50
2023-01-31T00:37:00.240Z,3.50
2023-01-31T00:38:00.239Z,3.70
2023-01-31T00:39:00.207Z,2.80
2023-01-31T00:40:00.213Z,3.60
2023-01-31T00:41:00.198Z,3.00
2023-01-31T00:42:00.180Z,3.70
2023-01-31T00:43:00.158Z,3.90
2023-01-31T00:44:07.164Z,3.40
2023-01-31T00:45:00.168Z,3.30
2023-01-31T00:46:00.152Z,3.50
2023-01-31T00:47:00.192Z,3.50
2023-01-31T00:48:00.126Z,3.60
2023-01-31T00:49:00.131Z,3.80
2023-01-31T00:50:00.107Z,3.50
2023-01-31T00:51:00.089Z,2.80
2023-01-31T00:52:00.130Z,3.80
2023-01-31T00:53:00.081Z,3.40
2023-01-31T00:54:00.049Z,3.40
2023-01-31T00:55:00.032Z,3.80
2023-01-31T00:56:00.035Z,3.70
2023-01-31T00:57:00.041Z,3.20
2023-01-31T00:58:00.036Z,3.60
2023-01-31T00:58:59.993Z,3.30
2023-01-31T00:59:59.979Z,3.70
2023-01-31T01:00:59.994Z,3.90
2023-01-31T01:02:00.057Z,3.30
2023-01-31T01:02:59.957Z,3.70
2023-01-31T01:03:59.956Z,3.40
2023-01-31T01:05:00.512Z,3.60
2023-01-31T01:05:59.925Z,4.00
2023-01-31T01:06:59.899Z,3.60
2023-01-31T01:07:59.919Z,3.50
2023-01-31T01:08:59.974Z,3.30
2023-01-31T01:09:59.884Z,3.30
2023-01-31T01:10:59.854Z,3.30
2023-01-31T01:11:59.851Z,2.90
2023-01-31T01:12:59.844Z,3.60
2023-01-31T01:13:59.836Z,3.30
2023-01-31T01:14:59.823Z,3.80
2023-01-31T01:15:59.863Z,3.70
2023-01-31T01:16:59.799Z,3.40
2023-01-31T01:17:59.793Z,3.00
2023-01-31T01:18:59.781Z,3.50
2023-01-31T01:19:59.774Z,3.80
2023-01-31T01:20:59.751Z,3.30
2023-01-31T01:21:59.758Z,3.50
2023-01-31T01:22:59.725Z,3.50
2023-01-31T01:23:59.738Z,3.10
2023-01-31T01:24:59.742Z,4.20
2023-01-31T01:25:59.712Z,3.40
2023-01-31T01:26:59.690Z,3.20
2023-01-31T01:27:59.678Z,3.50
2023-01-31T01:28:59.663Z,3.30
2023-01-31T01:29:59.672Z,3.40
2023-01-31T01:30:59.664Z,3.60
2023-01-31T01:31:59.692Z,3.30
2023-01-31T01:32:59.624Z,4.20
2023-01-31T01:33:59.617Z,3.20
2023-01-31T01:34:59.605Z,3.30
2023-01-31T01:35:59.588Z,3.00
2023-01-31T01:36:59.587Z,3.30
2023-01-31T01:37:59.581Z,3.00
2023-01-31T01:38:59.559Z,3.30
2023-01-31T01:39:59.569Z,3.40
2023-01-31T01:40:59.548Z,3.20
2023-01-31T01:41:59.541Z,3.20
2023-01-31T01:42:59.507Z,3.70
2023-01-31T01:43:59.514Z,3.20
2023-01-31T01:44:59.518Z,2.80
2023-01-31T01:45:59.521Z,3.10
2023-01-31T01:46:59.477Z,3.70
2023-01-31T01:47:59.472Z,3.50
2023-01-31T01:48:59.462Z,3.20
2023-01-31T01:49:59.439Z,3.40
2023-01-31T01:50:59.443Z,3.40
2023-01-31T01:51:59.427Z,2.60
2023-01-31T01:52:59.400Z,3.30
2023-01-31T01:53:59.402Z,3.50
2023-01-31T01:54:59.429Z,3.30
2023-01-31T01:55:59.423Z,3.80
2023-01-31T01:56:59.390Z,3.30
2023-01-31T01:57:59.373Z,2.70
2023-01-31T01:58:59.343Z,3.60
2023-01-31T01:59:59.367Z,3.60
2023-01-31T02:00:59.342Z,3.30
2023-01-31T02:01:59.374Z,3.60
2023-01-31T02:02:59.294Z,3.50
2023-01-31T02:03:59.292Z,2.80
2023-01-31T02:04:59.289Z,3.80
2023-01-31T02:05:59.271Z,3.20
2023-01-31T02:06:59.300Z,2.90
2023-01-31T02:07:59.246Z,2.90
2023-01-31T02:08:59.237Z,3.10
2023-01-31T02:09:59.230Z,3.60
2023-01-31T02:10:59.212Z,3.10
2023-01-31T02:11:59.280Z,3.50
2023-01-31T02:12:59.188Z,3.30
2023-01-31T02:13:59.189Z,3.10
2023-01-31T02:14:59.160Z,3.00
2023-01-31T02:15:59.158Z,3.10
2023-01-31T02:16:59.142Z,2.80
2023-01-31T02:17:59.134Z,3.40
2023-01-31T02:18:59.145Z,3.40
2023-01-31T02:19:59.124Z,3.60
2023-01-31T02:20:59.098Z,3.40
2023-01-31T02:21:59.093Z,3.50
2023-01-31T02:22:59.083Z,3.70
2023-01-31T02:23:59.089Z,3.60
2023-01-31T02:24:59.074Z,2.90
2023-01-31T02:25:59.060Z,3.30
2023-01-31T02:26:59.045Z,4.50
2023-01-31T02:27:59.054Z,3.50
2023-01-31T02:28:59.034Z,3.60
2023-01-31T02:29:59.007Z,3.30
2023-01-31T02:30:59.022Z,3.40
2023-01-31T02:31:59.033Z,3.30
2023-01-31T02:32:59.002Z,3.30
2023-01-31T02:33:58.986Z,3.30
2023-01-31T02:34:58.959Z,3.20
2023-01-31T02:35:58.959Z,3.20
2023-01-31T02:36:58.952Z,3.40
2023-01-31T02:37:58.923Z,3.60
2023-01-31T02:38:59.033Z,3.50
2023-01-31T02:39:58.918Z,3.50
2023-01-31T02:40:58.890Z,3.50
2023-01-31T02:41:58.891Z,3.50
2023-01-31T02:42:58.869Z,3.60
2023-01-31T02:43:58.883Z,3.50
2023-01-31T02:45:08.075Z,3.10
2023-01-31T02:45:58.896Z,3.00
2023-01-31T02:46:58.851Z,3.50
2023-01-31T02:47:58.838Z,3.30
2023-01-31T02:48:58.798Z,3.60
2023-01-31T02:49:58.798Z,3.50
2023-01-31T02:50:58.800Z,3.80
2023-01-31T02:51:58.790Z,3.70
2023-01-31T02:52:58.753Z,3.10
2023-01-31T02:53:58.759Z,3.20
2023-01-31T02:54:58.739Z,3.20
2023-01-31T02:55:58.722Z,3.70
2023-01-31T02:56:58.716Z,4.40
2023-01-31T02:57:58.717Z,3.60
2023-01-31T02:58:58.706Z,4.20
2023-01-31T02:59:58.704Z,4.10
2023-01-31T03:00:58.750Z,3.50
2023-01-31T03:01:58.669Z,3.30
2023-01-31T03:02:58.674Z,3.00
2023-01-31T03:03:58.638Z,3.50
2023-01-31T03:04:58.634Z,2.80
2023-01-31T03:05:58.621Z,3.40
2023-01-31T03:06:58.605Z,3.20
2023-01-31T03:07:58.635Z,3.20
2023-01-31T03:08:58.599Z,3.40
2023-01-31T03:09:58.593Z,3.20
2023-01-31T03:10:58.583Z,3.50
2023-01-31T03:11:58.595Z,3.50
2023-01-31T03:12:58.555Z,3.70
2023-01-31T03:13:58.554Z,3.90
2023-01-31T03:14:58.526Z,3.30
2023-01-31T03:15:58.539Z,4.00
2023-01-31T03:16:58.581Z,3.40
2023-01-31T03:17:58.494Z,3.90
2023-01-31T03:18:58.473Z,3.30
2023-01-31T03:19:58.477Z,3.40
2023-01-31T03:20:58.454Z,3.10
2023-01-31T03:21:58.459Z,3.50
2023-01-31T03:22:58.475Z,4.10
2023-01-31T03:23:58.430Z,4.20
2023-01-31T03:24:58.432Z,4.20
2023-01-31T03:25:58.423Z,3.80
2023-01-31T03:26:58.391Z,3.70
2023-01-31T03:27:58.379Z,3.70
2023-01-31T03:28:58.394Z,4.10
2023-01-31T03:29:58.363Z,3.20
2023-01-31T03:30:58.421Z,3.60
2023-01-31T03:31:58.519Z,3.70
2023-01-31T03:32:58.331Z,3.70
2023-01-31T03:33:58.315Z,3.70
2023-01-31T03:34:58.348Z,4.00
2023-01-31T03:35:58.321Z,3.60
2023-01-31T03:36:58.279Z,3.10
2023-01-31T03:37:58.284Z,3.10
2023-01-31T03:38:58.260Z,3.70
2023-01-31T03:39:58.285Z,4.20
2023-01-31T03:40:58.256Z,3.50
2023-01-31T03:41:58.228Z,3.40
2023-01-31T03:42:58.219Z,3.80
2023-01-31T03:43:58.214Z,4.40
2023-01-31T03:44:58.201Z,3.50
2023-01-31T03:45:58.227Z,3.40
2023-01-31T03:46:58.224Z,3.40
2023-01-31T03:47:58.191Z,3.90
2023-01-31T03:48:58.154Z,3.40
2023-01-31T03:49:58.168Z,4.00
2023-01-31T03:50:58.136Z,3.60
2023-01-31T03:51:58.131Z,3.90
2023-01-31T03:52:58.111Z,3.70
2023-01-31T03:53:58.112Z,3.80
2023-01-31T03:54:58.099Z,3.90
2023-01-31T03:55:58.079Z,3.10
2023-01-31T03:56:58.069Z,3.80
2023-01-31T03:57:58.071Z,3.50
2023-01-31T03:58:58.044Z,4.20
2023-01-31T03:59:58.075Z,3.80
2023-01-31T04:00:58.035Z,4.50
2023-01-31T04:01:58.033Z,3.10
2023-01-31T04:02:58.070Z,3.90
2023-01-31T04:03:58.024Z,3.50
2023-01-31T04:04:57.993Z,3.70
2023-01-31T04:05:57.992Z,3.50
2023-01-31T04:06:57.974Z,3.90
2023-01-31T04:07:57.979Z,3.90
2023-01-31T04:08:57.936Z,3.30
2023-01-31T04:09:57.930Z,4.10
2023-01-31T04:10:57.918Z,3.90
2023-01-31T04:11:57.913Z,3.90
2023-01-31T04:12:57.915Z,3.60
2023-01-31T04:13:57.905Z,3.90
2023-01-31T04:14:57.888Z,3.50
2023-01-31T04:15:57.913Z,3.50
2023-01-31T04:16:57.873Z,4.10
2023-01-31T04:17:57.867Z,4.10
2023-01-31T04:18:57.833Z,3.50
2023-01-31T04:19:57.863Z,3.00
2023-01-31T04:20:57.846Z,4.30
2023-01-31T04:21:57.806Z,3.60
2023-01-31T04:22:57.804Z,3.60
2023-01-31T04:23:57.776Z,4.10
2023-01-31T04:24:57.793Z,3.40
2023-01-31T04:25:57.762Z,3.40
2023-01-31T04:26:57.767Z,3.80
2023-01-31T04:27:57.753Z,3.70
2023-01-31T04:28:57.728Z,4.00
2023-01-31T04:29:57.717Z,3.60
2023-01-31T04:30:57.784Z,4.50
2023-01-31T04:31:57.993Z,3.40
2023-01-31T04:32:57.753Z,3.20
2023-01-31T04:33:57.685Z,3.80
2023-01-31T04:34:57.667Z,4.40
2023-01-31T04:35:57.671Z,3.70
2023-01-31T04:36:57.672Z,4.40
2023-01-31T04:37:57.650Z,3.60
2023-01-31T04:38:57.631Z,3.10
2023-01-31T04:39:57.607Z,4.20
2023-01-31T04:40:57.597Z,3.10
2023-01-31T04:41:57.601Z,3.20
2023-01-31T04:42:57.638Z,3.80
2023-01-31T04:43:57.565Z,3.70
2023-01-31T04:44:57.561Z,4.00
2023-01-31T04:46:05.408Z,3.40
2023-01-31T04:46:57.567Z,3.70
2023-01-31T04:47:57.519Z,3.10
2023-01-31T04:48:57.515Z,3.50
2023-01-31T04:49:57.519Z,3.70
2023-01-31T04:50:57.519Z,3.20
2023-01-31T04:51:57.497Z,3.50
2023-01-31T04:52:57.489Z,3.70
2023-01-31T04:53:57.471Z,3.70
2023-01-31T04:54:57.444Z,3.60
2023-01-31T04:55:57.441Z,3.50
2023-01-31T04:56:57.433Z,4.40
2023-01-31T04:57:57.408Z,3.40
2023-01-31T04:58:57.418Z,3.80
2023-01-31T04:59:57.392Z,3.80
2023-01-31T05:00:57.432Z,3.50
2023-01-31T05:01:57.367Z,4.00
2023-01-31T05:02:57.388Z,3.60
2023-01-31T05:03:57.358Z,4.10
2023-01-31T05:04:57.351Z,3.60
2023-01-31T05:05:57.324Z,4.30
2023-01-31T05:06:57.317Z,3.50
2023-01-31T05:07:57.323Z,4.70
2023-01-31T05:08:57.604Z,3.70
2023-01-31T05:09:57.300Z,3.30
2023-01-31T05:10:57.275Z,3.80
2023-01-31T05:11:57.257Z,4.40
2023-01-31T05:12:57.275Z,3.90
2023-01-31T05:13:57.241Z,4.40
2023-01-31T05:14:57.231Z,3.60
2023-01-31T05:15:57.266Z,3.40
2023-01-31T05:16:57.211Z,3.90
2023-01-31T05:17:57.205Z,3.80
2023-01-31T05:18:57.209Z,3.70
2023-01-31T05:19:57.178Z,3.70
2023-01-31T05:20:57.166Z,3.80
2023-01-31T05:21:57.169Z,3.80
2023-01-31T05:22:57.162Z,4.60
2023-01-31T05:23:57.155Z,3.90
2023-01-31T05:24:58.540Z,3.40
2023-01-31T05:25:57.116Z,4.30
2023-01-31T05:26:57.101Z,4.30
2023-01-31T05:27:57.096Z,4.00
2023-01-31T05:28:57.080Z,4.30
2023-01-31T05:29:57.068Z,3.80
2023-01-31T05:30:57.062Z,3.90
2023-01-31T05:31:57.081Z,4.40
2023-01-31T05:32:57.074Z,4.40
2023-01-31T05:33:57.041Z,3.60
2023-01-31T05:34:57.036Z,4.40
2023-01-31T05:35:56.999Z,4.40
2023-01-31T05:36:57.004Z,3.90
2023-01-31T05:37:56.992Z,4.20
2023-01-31T05:38:56.968Z,4.70
2023-01-31T05:39:57.113Z,4.20
2023-01-31T05:40:56.961Z,4.50
2023-01-31T05:41:56.945Z,4.70
2023-01-31T05:42:56.926Z,4.60
2023-01-31T05:43:56.929Z,4.60
2023-01-31T05:44:56.928Z,4.00
2023-01-31T05:45:56.944Z,4.20
2023-01-31T05:46:56.882Z,4.30
2023-01-31T05:47:56.881Z,3.90
2023-01-31T05:48:56.876Z,5.20
2023-01-31T05:49:56.845Z,4.40
2023-01-31T05:50:56.853Z,5.60
2023-01-31T05:51:56.837Z,4.30
2023-01-31T05:52:56.834Z,4.90
2023-01-31T05:53:56.837Z,4.80
2023-01-31T05:54:56.811Z,4.30
2023-01-31T05:55:56.827Z,5.40
2023-01-31T05:56:56.795Z,4.40
2023-01-31T05:57:56.771Z,5.10
2023-01-31T05:58:56.755Z,4.40
2023-01-31T05:59:56.763Z,5.00
2023-01-31T06:00:56.784Z,4.80
2023-01-31T06:01:56.762Z,5.20
2023-01-31T06:02:56.739Z,4.60
2023-01-31T06:03:56.695Z,4.60
2023-01-31T06:04:56.689Z,5.20
2023-01-31T06:05:56.691Z,4.60
2023-01-31T06:06:56.680Z,4.70
2023-01-31T06:07:56.662Z,4.90
2023-01-31T06:08:56.658Z,5.10
2023-01-31T06:09:56.629Z,5.50
2023-01-31T06:10:56.625Z,5.20
2023-01-31T06:11:56.648Z,5.80
2023-01-31T06:12:56.616Z,4.90
2023-01-31T06:13:56.600Z,4.30
2023-01-31T06:14:56.588Z,5.10
2023-01-31T06:15:56.565Z,4.10
2023-01-31T06:16:56.576Z,4.30
2023-01-31T06:17:56.561Z,4.30
2023-01-31T06:18:56.554Z,3.70
2023-01-31T06:19:56.523Z,5.40
2023-01-31T06:20:56.532Z,4.80
2023-01-31T06:21:56.524Z,4.60
2023-01-31T06:22:56.524Z,5.00
2023-01-31T06:23:56.500Z,4.50
2023-01-31T06:24:56.775Z,5.40
2023-01-31T06:25:57.079Z,4.90
2023-01-31T06:26:56.961Z,4.40
2023-01-31T06:27:56.837Z,4.60
2023-01-31T06:28:56.738Z,4.80
2023-01-31T06:29:56.684Z,4.50
2023-01-31T06:30:56.850Z,5.60
2023-01-31T06:31:56.521Z,4.80
2023-01-31T06:32:56.504Z,5.40
2023-01-31T06:33:56.369Z,4.40
2023-01-31T06:34:56.366Z,4.50
2023-01-31T06:35:56.377Z,4.60
2023-01-31T06:36:56.358Z,4.60
2023-01-31T06:37:56.959Z,4.50
2023-01-31T06:38:56.783Z,4.80
2023-01-31T06:39:56.825Z,4.90
2023-01-31T06:40:56.762Z,5.30
2023-01-31T06:41:56.595Z,4.50
2023-01-31T06:42:56.518Z,5.00
2023-01-31T06:43:56.297Z,3.90
2023-01-31T06:44:56.419Z,4.90
2023-01-31T06:45:56.403Z,5.30
2023-01-31T06:47:03.762Z,5.20
2023-01-31T06:47:56.242Z,4.80
2023-01-31T06:48:56.217Z,5.60
2023-01-31T06:49:56.216Z,4.80
2023-01-31T06:50:56.789Z,5.60
2023-01-31T06:51:56.738Z,5.10
2023-01-31T06:52:57.152Z,4.80
2023-01-31T06:53:56.700Z,4.30
2023-01-31T06:54:56.380Z,5.20
2023-01-31T06:55:56.417Z,5.00
2023-01-31T06:56:56.335Z,5.00
2023-01-31T06:57:56.215Z,4.90
2023-01-31T06:58:56.117Z,4.60
2023-01-31T06:59:56.153Z,4.80
2023-01-31T07:00:56.096Z,4.80
2023-01-31T07:01:56.144Z,5.70
2023-01-31T07:02:56.839Z,5.00
2023-01-31T07:03:56.615Z,5.20
2023-01-31T07:04:56.720Z,4.80
2023-01-31T07:05:56.400Z,6.00
2023-01-31T07:06:56.282Z,4.90
2023-01-31T07:07:56.232Z,6.00
2023-01-31T07:08:56.192Z,5.10
2023-01-31T07:09:55.986Z,5.20
2023-01-31T07:10:56.001Z,5.30
2023-01-31T07:11:56.012Z,5.40
2023-01-31T07:12:55.995Z,5.90
2023-01-31T07:13:55.970Z,6.10
2023-01-31T07:14:55.952Z,6.10
2023-01-31T07:15:56.754Z,6.10
2023-01-31T07:16:56.419Z,6.00
2023-01-31T07:17:56.275Z,5.70
2023-01-31T07:18:56.430Z,5.40
2023-01-31T07:19:56.149Z,5.90
2023-01-31T07:20:56.279Z,5.80
2023-01-31T07:21:56.205Z,5.50
2023-01-31T07:22:56.896Z,6.10
2023-01-31T07:23:55.865Z,4.70
2023-01-31T07:24:55.827Z,5.40
2023-01-31T07:25:55.815Z,6.00
2023-01-31T07:26:56.638Z,5.90
2023-01-31T07:27:56.159Z,5.20
2023-01-31T07:28:55.789Z,6.60
2023-01-31T07:29:55.785Z,5.20
2023-01-31T07:30:55.882Z,5.40
2023-01-31T07:31:55.806Z,5.20
2023-01-31T07:32:55.746Z,5.80
2023-01-31T07:33:55.731Z,5.60
2023-01-31T07:34:55.727Z,5.80
2023-01-31T07:35:55.722Z,6.20
2023-01-31T07:36:55.761Z,5.80
2023-01-31T07:37:55.688Z,5.80
2023-01-31T07:38:55.679Z,5.50
2023-01-31T07:39:55.667Z,6.10
2023-01-31T07:40:55.687Z,5.80
2023-01-31T07:41:55.651Z,5.90
2023-01-31T07:42:55.639Z,6.50
2023-01-31T07:43:55.629Z,6.10
2023-01-31T07:44:55.616Z,6.80
2023-01-31T07:45:55.667Z,6.20
2023-01-31T07:46:55.651Z,5.90
2023-01-31T07:47:56.088Z,5.80
2023-01-31T07:48:55.576Z,5.80
2023-01-31T07:49:55.573Z,6.90
2023-01-31T07:50:55.556Z,5.70
2023-01-31T07:51:55.585Z,6.40
2023-01-31T07:52:55.529Z,6.10
2023-01-31T07:53:55.544Z,7.10
2023-01-31T07:54:55.527Z,6.30
2023-01-31T07:55:55.506Z,7.50
2023-01-31T07:56:55.507Z,6.80
2023-01-31T07:57:55.516Z,6.80
2023-01-31T07:58:55.526Z,5.80
2023-01-31T07:59:55.475Z,6.30
2023-01-31T08:00:55.577Z,6.80
2023-01-31T08:01:55.436Z,7.00
2023-01-31T08:02:55.501Z,6.70
2023-01-31T08:03:55.567Z,6.40
2023-01-31T08:04:55.464Z,6.50
2023-01-31T08:05:55.391Z,6.70
2023-01-31T08:06:55.460Z,6.30
2023-01-31T08:07:55.402Z,7.10
2023-01-31T08:08:55.465Z,6.30
2023-01-31T08:09:55.356Z,6.30
2023-01-31T08:10:55.353Z,6.00
2023-01-31T08:11:55.315Z,7.00
2023-01-31T08:12:55.344Z,6.80
2023-01-31T08:13:55.323Z,6.50
2023-01-31T08:14:55.354Z,6.50
2023-01-31T08:15:55.291Z,6.40
2023-01-31T08:16:55.406Z,6.80
2023-01-31T08:17:55.266Z,7.00
2023-01-31T08:18:55.248Z,6.60
2023-01-31T08:19:55.265Z,6.60
2023-01-31T08:20:55.237Z,6.30
2023-01-31T08:21:56.153Z,6.30
2023-01-31T08:22:55.226Z,6.60
2023-01-31T08:23:55.195Z,5.50
2023-01-31T08:24:55.239Z,5.80
2023-01-31T08:25:55.222Z,6.40
2023-01-31T08:26:55.231Z,6.00
2023-01-31T08:27:55.199Z,6.10
2023-01-31T08:28:55.136Z,6.60
2023-01-31T08:29:55.127Z,5.40
2023-01-31T08:31:07.858Z,6.20
2023-01-31T08:31:55.322Z,5.90
2023-01-31T08:32:55.146Z,6.00
2023-01-31T08:33:55.088Z,5.70
2023-01-31T08:34:55.100Z,6.00
2023-01-31T08:35:55.087Z,6.00
2023-01-31T08:36:55.232Z,6.00
2023-01-31T08:38:03.747Z,6.00
2023-01-31T08:38:56.115Z,5.50
2023-01-31T08:39:55.045Z,5.90
2023-01-31T08:40:55.135Z,5.30
2023-01-31T08:41:54.997Z,6.50
2023-01-31T08:42:55.012Z,6.60
2023-01-31T08:43:57.461Z,6.60
2023-01-31T08:44:54.973Z,5.60
2023-01-31T08:45:54.999Z,5.60
2023-01-31T08:46:54.984Z,5.50
2023-01-31T08:48:05.678Z,5.70
2023-01-31T08:48:54.910Z,5.90
2023-01-31T08:49:54.929Z,5.90
2023-01-31T08:50:54.945Z,5.30
2023-01-31T08:51:54.930Z,4.90
2023-01-31T08:52:54.877Z,5.60
2023-01-31T08:53:54.856Z,5.60
2023-01-31T08:54:54.855Z,5.40
2023-01-31T08:55:54.834Z,5.50
2023-01-31T08:56:54.840Z,5.00
2023-01-31T08:57:59.780Z,5.40
2023-01-31T08:58:55.825Z,5.20
2023-01-31T08:59:54.806Z,5.10
2023-01-31T09:00:54.801Z,5.50
2023-01-31T09:01:54.862Z,5.60
2023-01-31T09:02:54.806Z,5.60
2023-01-31T09:03:54.789Z,5.90
2023-01-31T09:04:54.758Z,5.40
2023-01-31T09:05:54.728Z,5.50
2023-01-31T09:06:54.732Z,6.40
2023-01-31T09:07:54.737Z,5.10
2023-01-31T09:08:55.313Z,5.20
2023-01-31T09:09:54.692Z,6.00
2023-01-31T09:10:54.688Z,5.60
2023-01-31T09:11:54.667Z,5.70
2023-01-31T09:12:54.856Z,5.40
2023-01-31T09:13:54.665Z,5.40
2023-01-31T09:14:54.649Z,6.30
2023-01-31T09:15:54.642Z,5.70
2023-01-31T09:16:54.630Z,5.80
2023-01-31T09:17:54.604Z,5.10
2023-01-31T09:18:55.132Z,5.80
2023-01-31T09:19:54.611Z,6.00
2023-01-31T09:20:54.565Z,5.80
2023-01-31T09:21:54.573Z,6.10
2023-01-31T09:22:54.573Z,6.10
2023-01-31T09:23:54.592Z,6.20
2023-01-31T09:24:54.526Z,6.40
2023-01-31T09:25:54.528Z,5.70
2023-01-31T09:26:54.560Z,7.30
2023-01-31T09:27:54.563Z,5.90
2023-01-31T09:28:54.489Z,5.70
2023-01-31T09:29:54.467Z,5.80
2023-01-31T09:30:54.537Z,6.30
2023-01-31T09:31:54.576Z,5.60
2023-01-31T09:32:54.436Z,6.10
2023-01-31T09:33:54.497Z,6.20
2023-01-31T09:34:54.497Z,5.90
2023-01-31T09:35:54.411Z,5.90
2023-01-31T09:36:54.476Z,6.00
2023-01-31T09:37:54.413Z,6.10
2023-01-31T09:38:54.390Z,6.60
2023-01-31T09:39:54.410Z,6.30
2023-01-31T09:40:54.509Z,6.20
2023-01-31T09:41:54.398Z,6.20
2023-01-31T09:42:54.354Z,6.50
2023-01-31T09:43:54.336Z,5.40
2023-01-31T09:44:54.300Z,6.60
2023-01-31T09:45:54.298Z,6.00
2023-01-31T09:46:54.368Z,6.80
2023-01-31T09:47:54.293Z,6.30
2023-01-31T09:48:54.298Z,6.00
2023-01-31T09:49:54.346Z,6.20
2023-01-31T09:50:54.281Z,6.60
2023-01-31T09:51:54.221Z,6.60
2023-01-31T09:52:54.280Z,5.30
2023-01-31T09:53:54.276Z,6.00
2023-01-31T09:54:54.384Z,5.80
2023-01-31T09:55:54.287Z,6.30
2023-01-31T09:56:54.172Z,6.10
2023-01-31T09:57:54.254Z,6.50
2023-01-31T09:58:54.145Z,6.60
2023-01-31T09:59:54.139Z,6.20
2023-01-31T10:00:54.223Z,7.00
2023-01-31T10:01:54.188Z,6.60
2023-01-31T10:02:54.129Z,6.10
2023-01-31T10:03:54.196Z,6.70
2023-01-31T10:04:54.188Z,7.20
2023-01-31T10:05:54.095Z,6.50
2023-01-31T10:06:54.118Z,6.80
2023-01-31T10:07:54.060Z,6.80
2023-01-31T10:08:54.089Z,6.30
2023-01-31T10:09:54.092Z,6.80
2023-01-31T10:10:54.052Z,6.30
2023-01-31T10:11:54.202Z,6.40
2023-01-31T10:12:54.014Z,6.40
2023-01-31T10:13:54.076Z,6.40
2023-01-31T10:14:54.036Z,7.30
2023-01-31T10:15:54.099Z,7.10
2023-01-31T10:16:54.124Z,6.30
2023-01-31T10:17:54.753Z,6.60
2023-01-31T10:18:54.988Z,6.30
2023-01-31T10:19:53.969Z,6.00
2023-01-31T10:20:54.759Z,6.40
2023-01-31T10:21:53.936Z,6.70
2023-01-31T10:22:53.897Z,6.50
2023-01-31T10:23:53.925Z,6.60
2023-01-31T10:24:53.894Z,6.90
2023-01-31T10:25:53.857Z,6.50
2023-01-31T10:26:53.876Z,6.90
2023-01-31T10:27:53.924Z,6.70
2023-01-31T10:28:54.731Z,6.50
2023-01-31T10:29:53.852Z,6.50
2023-01-31T10:30:53.835Z,7.00
2023-01-31T10:31:53.917Z,6.80
2023-01-31T10:32:53.782Z,6.30
2023-01-31T10:33:53.772Z,6.20
2023-01-31T10:34:53.851Z,6.20
2023-01-31T10:35:53.806Z,6.10
2023-01-31T10:36:53.737Z,7.60
2023-01-31T10:37:53.741Z,7.00
2023-01-31T10:38:53.735Z,6.80
2023-01-31T10:39:53.832Z,6.80
2023-01-31T10:40:53.821Z,6.60
2023-01-31T10:41:54.705Z,6.70
2023-01-31T10:42:53.799Z,7.60
2023-01-31T10:43:53.702Z,6.20
2023-01-31T10:44:53.801Z,6.80
2023-01-31T10:45:53.672Z,7.30
2023-01-31T10:46:53.660Z,6.00
2023-01-31T10:47:54.168Z,6.10
2023-01-31T10:49:01.439Z,6.10
2023-01-31T10:49:53.602Z,6.80
2023-01-31T10:50:53.613Z,7.30
2023-01-31T10:51:53.581Z,7.10
2023-01-31T10:52:53.594Z,7.50
2023-01-31T10:53:53.554Z,7.50
2023-01-31T10:54:53.555Z,7.40
2023-01-31T10:55:53.522Z,6.70
2023-01-31T10:56:53.528Z,6.20
2023-01-31T10:57:53.518Z,6.70
2023-01-31T10:58:53.736Z,7.20
2023-01-31T10:59:53.516Z,6.60
2023-01-31T11:00:53.508Z,6.60
2023-01-31T11:01:53.512Z,6.30
2023-01-31T11:02:53.441Z,6.60
2023-01-31T11:03:53.449Z,6.90
2023-01-31T11:04:53.644Z,6.90
2023-01-31T11:05:53.456Z,7.00
2023-01-31T11:06:53.429Z,7.10
2023-01-31T11:07:53.433Z,6.80
2023-01-31T11:08:53.397Z,7.20
2023-01-31T11:09:53.383Z,7.20
2023-01-31T11:10:53.368Z,6.70
2023-01-31T11:11:53.369Z,7.40
2023-01-31T11:12:53.347Z,7.20
2023-01-31T11:13:53.331Z,6.50
2023-01-31T11:14:54.057Z,6.50
2023-01-31T11:15:53.327Z,6.90
2023-01-31T11:16:53.371Z,7.40
2023-01-31T11:17:53.295Z,6.30
2023-01-31T11:18:53.288Z,7.40
2023-01-31T11:19:53.382Z,7.50
2023-01-31T11:20:53.249Z,6.90
2023-01-31T11:21:53.254Z,6.40
2023-01-31T11:22:53.231Z,6.70
2023-01-31T11:23:53.219Z,6.80
2023-01-31T11:24:53.217Z,7.10
2023-01-31T11:25:53.220Z,7.00
2023-01-31T11:26:53.207Z,7.20
2023-01-31T11:27:53.202Z,7.60
2023-01-31T11:28:53.173Z,7.70
2023-01-31T11:29:53.169Z,6.80
2023-01-31T11:30:53.239Z,6.50
2023-01-31T11:31:53.230Z,6.80
2023-01-31T11:32:53.126Z,7.30
2023-01-31T11:33:53.127Z,7.30
2023-01-31T11:34:53.132Z,7.10
2023-01-31T11:35:53.129Z,7.10
2023-01-31T11:36:53.075Z,7.60
2023-01-31T11:37:54.344Z,7.30
2023-01-31T11:38:53.089Z,6.60
2023-01-31T11:39:53.057Z,7.30
2023-01-31T11:40:53.054Z,7.00
2023-01-31T11:41:53.095Z,7.10
2023-01-31T11:42:53.073Z,7.20
2023-01-31T11:43:53.025Z,7.50
2023-01-31T11:44:53.018Z,7.50
2023-01-31T11:45:53.028Z,7.00
2023-01-31T11:46:53.167Z,8.10
2023-01-31T11:47:53.030Z,7.20
2023-01-31T11:48:53.860Z,7.30
2023-01-31T11:49:52.970Z,7.10
2023-01-31T11:50:52.946Z,7.80
2023-01-31T11:51:52.933Z,7.50
2023-01-31T11:52:52.934Z,7.70
2023-01-31T11:53:52.906Z,7.10
2023-01-31T11:54:52.890Z,7.40
2023-01-31T11:55:52.897Z,6.90
2023-01-31T11:56:55.602Z,6.70
2023-01-31T11:57:52.858Z,6.40
2023-01-31T11:58:52.845Z,6.20
2023-01-31T11:59:52.828Z,7.10
2023-01-31T12:00:52.828Z,7.00
2023-01-31T12:01:52.856Z,7.70
2023-01-31T12:02:52.793Z,7.00
2023-01-31T12:04:02.518Z,6.90
2023-01-31T12:04:53.787Z,8.10
2023-01-31T12:05:52.784Z,7.30
2023-01-31T12:06:52.773Z,7.50
2023-01-31T12:07:52.748Z,9.00
2023-01-31T12:08:52.776Z,8.20
2023-01-31T12:09:52.765Z,8.60
2023-01-31T12:10:52.777Z,8.10
2023-01-31T12:11:52.710Z,8.80
2023-01-31T12:12:52.700Z,9.30
2023-01-31T12:13:52.743Z,9.00
2023-01-31T12:14:53.361Z,9.90
2023-01-31T12:15:53.020Z,9.40
2023-01-31T12:16:53.475Z,10.50
2023-01-31T12:17:52.799Z,10.80
2023-01-31T12:18:53.095Z,9.60
2023-01-31T12:19:52.785Z,10.70
2023-01-31T12:20:52.697Z,9.90
2023-01-31T12:21:52.626Z,10.80
2023-01-31T12:22:52.589Z,9.50
2023-01-31T12:23:52.572Z,9.90
2023-01-31T12:24:52.601Z,10.30
2023-01-31T12:25:52.558Z,10.10
2023-01-31T12:26:52.617Z,10.00
2023-01-31T12:27:52.545Z,10.10
2023-01-31T12:28:52.529Z,10.00
2023-01-31T12:29:52.556Z,9.70
2023-01-31T12:30:52.600Z,10.40
2023-01-31T12:31:52.553Z,10.70
2023-01-31T12:32:52.490Z,10.40
2023-01-31T12:33:52.477Z,10.20
2023-01-31T12:35:00.684Z,9.40
2023-01-31T12:35:53.469Z,11.00
2023-01-31T12:36:52.429Z,10.50
2023-01-31T12:37:52.436Z,10.80
2023-01-31T12:38:52.444Z,10.50
2023-01-31T12:39:52.408Z,10.50
2023-01-31T12:40:52.395Z,10.60
2023-01-31T12:41:52.380Z,11.10
2023-01-31T12:42:52.405Z,10.50
2023-01-31T12:43:52.532Z,11.40
2023-01-31T12:44:52.344Z,11.60
2023-01-31T12:45:52.381Z,11.50
2023-01-31T12:47:08.627Z,11.20
2023-01-31T12:47:52.313Z,10.30
2023-01-31T12:48:52.309Z,11.00
2023-01-31T12:49:59.792Z,11.20
2023-01-31T12:50:52.291Z,11.40
2023-01-31T12:51:52.686Z,11.30
2023-01-31T12:52:52.271Z,12.10
2023-01-31T12:53:52.237Z,11.30
2023-01-31T12:54:52.250Z,12.80
2023-01-31T12:55:52.263Z,11.60
2023-01-31T12:56:52.214Z,12.70
2023-01-31T12:57:52.200Z,12.50
2023-01-31T12:58:55.346Z,13.60
2023-01-31T12:59:52.190Z,14.10
2023-01-31T13:00:52.187Z,13.70
2023-01-31T13:01:52.276Z,12.90
2023-01-31T13:02:52.367Z,14.10
2023-01-31T13:03:52.192Z,14.90
2023-01-31T13:04:52.139Z,14.50
2023-01-31T13:05:52.140Z,14.20
2023-01-31T13:06:52.101Z,14.80
2023-01-31T13:07:52.114Z,16.00
2023-01-31T13:09:06.805Z,14.90
2023-01-31T13:09:53.093Z,15.50
2023-01-31T13:10:52.072Z,16.50
2023-01-31T13:11:52.094Z,15.30
2023-01-31T13:12:52.039Z,15.50
2023-01-31T13:13:52.021Z,16.60
2023-01-31T13:14:52.039Z,15.90
2023-01-31T13:15:52.094Z,15.10